sensor_id;sensor_type;location;lat;lon;timestamp;P1;durP1;ratioP1;P2;durP2;ratioP2
9767;SDS011;4923;52.520;13.494;2023-02-08T00:01:34;41.75;;;20.60;;
9767;SDS011;4923;52.520;13.494;2023-02-08T00:04:20;30.63;;;15.45;;
9767;SDS011;4923;52.520;13.494;2023-02-08T00:07:07;24.42;;;14.63;;
9767;SDS011;4923;52.520;13.494;2023-02-08T00:09:55;27.85;;;15.23;;
9767;SDS011;4923;52.520;13.494;2023-02-08T00:12:42;37.20;;;19.42;;
9767;SDS011;4923;52.520;13.494;2023-02-08T00:15:29;30.33;;;15.60;;
9767;SDS011;4923;52.520;13.494;2023-02-08T00:18:16;31.30;;;15.80;;
9767;SDS011;4923;52.520;13.494;2023-02-08T00:21:06;32.35;;;15.63;;
9767;SDS011;4923;52.520;13.494;2023-02-08T00:23:53;26.65;;;14.75;;
9767;SDS011;4923;52.520;13.494;2023-02-08T00:26:42;34.85;;;14.35;;
9767;SDS011;4923;52.520;13.494;2023-02-08T00:29:29;24.65;;;14.43;;
9767;SDS011;4923;52.520;13.494;2023-02-08T00:32:16;20.38;;;13.00;;
9767;SDS011;4923;52.520;13.494;2023-02-08T00:35:03;26.85;;;14.60;;
9767;SDS011;4923;52.520;13.494;2023-02-08T00:37:50;23.58;;;13.30;;
9767;SDS011;4923;52.520;13.494;2023-02-08T00:40:37;28.15;;;13.13;;
9767;SDS011;4923;52.520;13.494;2023-02-08T00:43:25;24.42;;;12.13;;
9767;SDS011;4923;52.520;13.494;2023-02-08T00:46:12;30.52;;;13.70;;
9767;SDS011;4923;52.520;13.494;2023-02-08T00:48:59;24.48;;;12.98;;
9767;SDS011;4923;52.520;13.494;2023-02-08T00:51:46;19.42;;;12.85;;
9767;SDS011;4923;52.520;13.494;2023-02-08T00:54:33;18.80;;;12.57;;
9767;SDS011;4923;52.520;13.494;2023-02-08T00:57:20;23.38;;;12.52;;
9767;SDS011;4923;52.520;13.494;2023-02-08T01:00:09;19.45;;;11.60;;
9767;SDS011;4923;52.520;13.494;2023-02-08T01:02:56;25.40;;;13.13;;
9767;SDS011;4923;52.520;13.494;2023-02-08T01:05:43;25.73;;;12.85;;
9767;SDS011;4923;52.520;13.494;2023-02-08T01:08:30;19.52;;;11.32;;
9767;SDS011;4923;52.520;13.494;2023-02-08T01:11:19;24.80;;;12.95;;
9767;SDS011;4923;52.520;13.494;2023-02-08T01:14:09;18.08;;;11.95;;
9767;SDS011;4923;52.520;13.494;2023-02-08T01:16:57;23.75;;;12.93;;
9767;SDS011;4923;52.520;13.494;2023-02-08T01:19:44;21.98;;;13.55;;
9767;SDS011;4923;52.520;13.494;2023-02-08T01:22:31;25.95;;;12.43;;
9767;SDS011;4923;52.520;13.494;2023-02-08T01:25:18;22.10;;;12.40;;
9767;SDS011;4923;52.520;13.494;2023-02-08T01:28:04;22.70;;;12.95;;
9767;SDS011;4923;52.520;13.494;2023-02-08T01:30:51;28.67;;;13.90;;
9767;SDS011;4923;52.520;13.494;2023-02-08T01:33:39;21.45;;;13.77;;
9767;SDS011;4923;52.520;13.494;2023-02-08T01:36:27;26.17;;;13.32;;
9767;SDS011;4923;52.520;13.494;2023-02-08T01:39:15;24.75;;;13.30;;
9767;SDS011;4923;52.520;13.494;2023-02-08T01:42:02;24.00;;;12.77;;
9767;SDS011;4923;52.520;13.494;2023-02-08T01:48:11;24.67;;;12.02;;
9767;SDS011;4923;52.520;13.494;2023-02-08T01:51:03;20.02;;;12.63;;
9767;SDS011;4923;52.520;13.494;2023-02-08T01:53:54;33.47;;;13.20;;
9767;SDS011;4923;52.520;13.494;2023-02-08T01:56:43;24.17;;;13.30;;
9767;SDS011;4923;52.520;13.494;2023-02-08T01:59:33;22.77;;;12.20;;
9767;SDS011;4923;52.520;13.494;2023-02-08T02:02:24;21.00;;;12.10;;
9767;SDS011;4923;52.520;13.494;2023-02-08T02:05:12;22.27;;;11.70;;
9767;SDS011;4923;52.520;13.494;2023-02-08T02:08:02;18.52;;;10.70;;
9767;SDS011;4923;52.520;13.494;2023-02-08T02:10:50;19.92;;;12.35;;
9767;SDS011;4923;52.520;13.494;2023-02-08T02:13:37;22.08;;;12.52;;
9767;SDS011;4923;52.520;13.494;2023-02-08T02:16:24;21.17;;;12.20;;
9767;SDS011;4923;52.520;13.494;2023-02-08T02:19:12;19.40;;;11.60;;
9767;SDS011;4923;52.520;13.494;2023-02-08T02:22:06;17.73;;;12.10;;
9767;SDS011;4923;52.520;13.494;2023-02-08T02:25:17;22.45;;;12.23;;
9767;SDS011;4923;52.520;13.494;2023-02-08T02:28:38;15.65;;;10.45;;
9767;SDS011;4923;52.520;13.494;2023-02-08T02:32:02;19.48;;;10.10;;
9767;SDS011;4923;52.520;13.494;2023-02-08T02:34:58;22.05;;;11.57;;
9767;SDS011;4923;52.520;13.494;2023-02-08T02:37:51;20.70;;;12.10;;
9767;SDS011;4923;52.520;13.494;2023-02-08T02:40:47;20.23;;;11.10;;
9767;SDS011;4923;52.520;13.494;2023-02-08T02:43:41;15.77;;;10.30;;
9767;SDS011;4923;52.520;13.494;2023-02-08T02:46:32;14.13;;;9.68;;
9767;SDS011;4923;52.520;13.494;2023-02-08T02:49:26;18.38;;;11.15;;
9767;SDS011;4923;52.520;13.494;2023-02-08T02:52:20;19.63;;;11.73;;
9767;SDS011;4923;52.520;13.494;2023-02-08T02:55:12;18.00;;;10.93;;
9767;SDS011;4923;52.520;13.494;2023-02-08T02:58:02;17.17;;;11.10;;
9767;SDS011;4923;52.520;13.494;2023-02-08T03:00:51;21.02;;;10.48;;
9767;SDS011;4923;52.520;13.494;2023-02-08T03:03:38;18.88;;;11.50;;
9767;SDS011;4923;52.520;13.494;2023-02-08T03:06:31;16.90;;;8.93;;
9767;SDS011;4923;52.520;13.494;2023-02-08T03:12:41;15.70;;;9.93;;
9767;SDS011;4923;52.520;13.494;2023-02-08T03:15:39;19.35;;;11.00;;
9767;SDS011;4923;52.520;13.494;2023-02-08T03:18:35;15.52;;;9.05;;
9767;SDS011;4923;52.520;13.494;2023-02-08T03:21:35;15.68;;;8.48;;
9767;SDS011;4923;52.520;13.494;2023-02-08T03:24:28;17.05;;;9.90;;
9767;SDS011;4923;52.520;13.494;2023-02-08T03:27:26;18.27;;;9.65;;
9767;SDS011;4923;52.520;13.494;2023-02-08T03:30:19;12.82;;;8.77;;
9767;SDS011;4923;52.520;13.494;2023-02-08T03:33:11;16.95;;;9.07;;
9767;SDS011;4923;52.520;13.494;2023-02-08T03:36:02;18.42;;;9.38;;
9767;SDS011;4923;52.520;13.494;2023-02-08T03:38:52;17.08;;;8.95;;
9767;SDS011;4923;52.520;13.494;2023-02-08T03:41:41;18.08;;;10.07;;
9767;SDS011;4923;52.520;13.494;2023-02-08T03:44:32;13.40;;;8.02;;
9767;SDS011;4923;52.520;13.494;2023-02-08T03:47:22;28.60;;;10.00;;
9767;SDS011;4923;52.520;13.494;2023-02-08T03:50:12;18.83;;;8.85;;
9767;SDS011;4923;52.520;13.494;2023-02-08T03:53:01;18.20;;;9.80;;
9767;SDS011;4923;52.520;13.494;2023-02-08T03:55:53;18.92;;;9.68;;
9767;SDS011;4923;52.520;13.494;2023-02-08T03:58:46;13.15;;;9.07;;
9767;SDS011;4923;52.520;13.494;2023-02-08T04:01:38;16.83;;;9.02;;
9767;SDS011;4923;52.520;13.494;2023-02-08T04:04:30;16.45;;;9.45;;
9767;SDS011;4923;52.520;13.494;2023-02-08T04:07:20;13.57;;;8.73;;
9767;SDS011;4923;52.520;13.494;2023-02-08T04:10:07;15.88;;;9.20;;
9767;SDS011;4923;52.520;13.494;2023-02-08T04:12:55;17.02;;;9.07;;
9767;SDS011;4923;52.520;13.494;2023-02-08T04:15:42;14.20;;;8.45;;
9767;SDS011;4923;52.520;13.494;2023-02-08T04:18:29;17.38;;;8.85;;
9767;SDS011;4923;52.520;13.494;2023-02-08T04:21:16;17.50;;;9.30;;
9767;SDS011;4923;52.520;13.494;2023-02-08T04:24:03;13.48;;;9.45;;
9767;SDS011;4923;52.520;13.494;2023-02-08T04:26:50;14.43;;;8.45;;
9767;SDS011;4923;52.520;13.494;2023-02-08T04:29:38;14.70;;;8.48;;
9767;SDS011;4923;52.520;13.494;2023-02-08T04:32:25;14.70;;;7.75;;
9767;SDS011;4923;52.520;13.494;2023-02-08T04:35:12;16.80;;;9.27;;
9767;SDS011;4923;52.520;13.494;2023-02-08T04:37:59;17.80;;;8.60;;
9767;SDS011;4923;52.520;13.494;2023-02-08T04:40:46;12.00;;;8.30;;
9767;SDS011;4923;52.520;13.494;2023-02-08T04:43:33;14.30;;;8.30;;
9767;SDS011;4923;52.520;13.494;2023-02-08T04:46:21;21.58;;;9.77;;
9767;SDS011;4923;52.520;13.494;2023-02-08T04:49:08;15.45;;;9.77;;
9767;SDS011;4923;52.520;13.494;2023-02-08T04:51:55;12.65;;;8.07;;
9767;SDS011;4923;52.520;13.494;2023-02-08T04:54:41;16.00;;;8.90;;
9767;SDS011;4923;52.520;13.494;2023-02-08T04:57:28;16.10;;;8.30;;
9767;SDS011;4923;52.520;13.494;2023-02-08T05:00:15;15.63;;;9.07;;
9767;SDS011;4923;52.520;13.494;2023-02-08T05:03:04;16.73;;;9.23;;
9767;SDS011;4923;52.520;13.494;2023-02-08T05:05:55;13.95;;;9.18;;
9767;SDS011;4923;52.520;13.494;2023-02-08T05:08:42;15.48;;;9.88;;
9767;SDS011;4923;52.520;13.494;2023-02-08T05:11:29;16.73;;;9.60;;
9767;SDS011;4923;52.520;13.494;2023-02-08T05:14:16;15.55;;;9.55;;
9767;SDS011;4923;52.520;13.494;2023-02-08T05:17:03;14.10;;;8.15;;
9767;SDS011;4923;52.520;13.494;2023-02-08T05:19:51;16.42;;;8.75;;
9767;SDS011;4923;52.520;13.494;2023-02-08T05:22:38;17.45;;;8.65;;
9767;SDS011;4923;52.520;13.494;2023-02-08T05:25:25;14.82;;;8.70;;
9767;SDS011;4923;52.520;13.494;2023-02-08T05:28:12;18.38;;;10.25;;
9767;SDS011;4923;52.520;13.494;2023-02-08T05:30:59;18.92;;;10.23;;
9767;SDS011;4923;52.520;13.494;2023-02-08T05:33:53;17.90;;;10.30;;
9767;SDS011;4923;52.520;13.494;2023-02-08T05:36:41;23.10;;;10.30;;
9767;SDS011;4923;52.520;13.494;2023-02-08T05:39:28;17.42;;;9.43;;
9767;SDS011;4923;52.520;13.494;2023-02-08T05:42:14;23.13;;;10.05;;
9767;SDS011;4923;52.520;13.494;2023-02-08T05:45:01;18.10;;;10.52;;
9767;SDS011;4923;52.520;13.494;2023-02-08T05:47:48;16.27;;;9.95;;
9767;SDS011;4923;52.520;13.494;2023-02-08T05:50:35;19.13;;;10.30;;
9767;SDS011;4923;52.520;13.494;2023-02-08T05:53:23;21.20;;;10.60;;
9767;SDS011;4923;52.520;13.494;2023-02-08T05:56:10;14.88;;;9.23;;
9767;SDS011;4923;52.520;13.494;2023-02-08T05:58:58;20.63;;;10.27;;
9767;SDS011;4923;52.520;13.494;2023-02-08T06:01:45;15.13;;;9.90;;
9767;SDS011;4923;52.520;13.494;2023-02-08T06:04:32;21.27;;;10.23;;
9767;SDS011;4923;52.520;13.494;2023-02-08T06:07:19;16.13;;;9.95;;
9767;SDS011;4923;52.520;13.494;2023-02-08T06:10:07;22.52;;;11.90;;
9767;SDS011;4923;52.520;13.494;2023-02-08T06:12:54;17.02;;;9.13;;
9767;SDS011;4923;52.520;13.494;2023-02-08T06:15:41;27.25;;;10.82;;
9767;SDS011;4923;52.520;13.494;2023-02-08T06:18:28;19.85;;;10.88;;
9767;SDS011;4923;52.520;13.494;2023-02-08T06:21:15;17.75;;;9.93;;
9767;SDS011;4923;52.520;13.494;2023-02-08T06:24:02;17.83;;;10.32;;
9767;SDS011;4923;52.520;13.494;2023-02-08T06:26:52;19.40;;;9.50;;
9767;SDS011;4923;52.520;13.494;2023-02-08T06:29:39;18.88;;;10.52;;
9767;SDS011;4923;52.520;13.494;2023-02-08T06:32:25;22.38;;;10.60;;
9767;SDS011;4923;52.520;13.494;2023-02-08T06:35:12;19.70;;;10.30;;
9767;SDS011;4923;52.520;13.494;2023-02-08T06:37:59;19.05;;;10.18;;
9767;SDS011;4923;52.520;13.494;2023-02-08T06:40:46;21.50;;;11.18;;
9767;SDS011;4923;52.520;13.494;2023-02-08T06:43:35;17.73;;;10.02;;
9767;SDS011;4923;52.520;13.494;2023-02-08T06:46:22;21.05;;;9.50;;
9767;SDS011;4923;52.520;13.494;2023-02-08T06:49:09;17.45;;;10.02;;
9767;SDS011;4923;52.520;13.494;2023-02-08T06:51:56;21.48;;;11.68;;
9767;SDS011;4923;52.520;13.494;2023-02-08T06:54:43;23.35;;;10.63;;
9767;SDS011;4923;52.520;13.494;2023-02-08T06:57:30;19.33;;;11.30;;
9767;SDS011;4923;52.520;13.494;2023-02-08T07:00:18;21.25;;;11.32;;
9767;SDS011;4923;52.520;13.494;2023-02-08T07:03:05;16.98;;;9.77;;
9767;SDS011;4923;52.520;13.494;2023-02-08T07:05:52;17.55;;;10.38;;
9767;SDS011;4923;52.520;13.494;2023-02-08T07:08:39;19.90;;;11.05;;
9767;SDS011;4923;52.520;13.494;2023-02-08T07:11:26;24.80;;;11.82;;
9767;SDS011;4923;52.520;13.494;2023-02-08T07:14:13;18.98;;;11.43;;
9767;SDS011;4923;52.520;13.494;2023-02-08T07:17:01;18.30;;;10.95;;
9767;SDS011;4923;52.520;13.494;2023-02-08T07:19:48;19.77;;;11.20;;
9767;SDS011;4923;52.520;13.494;2023-02-08T07:22:36;19.27;;;10.48;;
9767;SDS011;4923;52.520;13.494;2023-02-08T07:25:23;22.95;;;13.25;;
9767;SDS011;4923;52.520;13.494;2023-02-08T07:28:09;19.55;;;11.20;;
9767;SDS011;4923;52.520;13.494;2023-02-08T07:30:56;18.85;;;10.77;;
9767;SDS011;4923;52.520;13.494;2023-02-08T07:33:45;20.90;;;10.90;;
9767;SDS011;4923;52.520;13.494;2023-02-08T07:36:31;24.27;;;12.70;;
9767;SDS011;4923;52.520;13.494;2023-02-08T07:39:20;25.95;;;11.15;;
9767;SDS011;4923;52.520;13.494;2023-02-08T07:42:07;20.73;;;11.70;;
9767;SDS011;4923;52.520;13.494;2023-02-08T07:44:54;21.63;;;12.07;;
9767;SDS011;4923;52.520;13.494;2023-02-08T07:47:41;21.02;;;12.00;;
9767;SDS011;4923;52.520;13.494;2023-02-08T07:50:29;21.45;;;11.68;;
9767;SDS011;4923;52.520;13.494;2023-02-08T07:53:16;20.52;;;11.45;;
9767;SDS011;4923;52.520;13.494;2023-02-08T07:56:03;20.52;;;11.50;;
9767;SDS011;4923;52.520;13.494;2023-02-08T07:58:50;27.83;;;12.55;;
9767;SDS011;4923;52.520;13.494;2023-02-08T08:01:40;19.23;;;10.68;;
9767;SDS011;4923;52.520;13.494;2023-02-08T08:04:28;23.75;;;13.07;;
9767;SDS011;4923;52.520;13.494;2023-02-08T08:07:16;23.35;;;12.13;;
9767;SDS011;4923;52.520;13.494;2023-02-08T08:10:03;22.25;;;12.32;;
9767;SDS011;4923;52.520;13.494;2023-02-08T08:12:50;21.35;;;12.05;;
9767;SDS011;4923;52.520;13.494;2023-02-08T08:15:37;24.75;;;12.35;;
9767;SDS011;4923;52.520;13.494;2023-02-08T08:18:24;24.83;;;13.10;;
9767;SDS011;4923;52.520;13.494;2023-02-08T08:21:11;21.13;;;12.45;;
9767;SDS011;4923;52.520;13.494;2023-02-08T08:24:00;20.90;;;11.60;;
9767;SDS011;4923;52.520;13.494;2023-02-08T08:26:47;26.42;;;12.90;;
9767;SDS011;4923;52.520;13.494;2023-02-08T08:29:35;26.02;;;12.70;;
9767;SDS011;4923;52.520;13.494;2023-02-08T08:32:23;22.45;;;12.60;;
9767;SDS011;4923;52.520;13.494;2023-02-08T08:35:10;33.50;;;11.50;;
9767;SDS011;4923;52.520;13.494;2023-02-08T08:37:57;21.83;;;11.85;;
9767;SDS011;4923;52.520;13.494;2023-02-08T08:40:45;25.38;;;12.05;;
9767;SDS011;4923;52.520;13.494;2023-02-08T08:43:32;24.58;;;12.80;;
9767;SDS011;4923;52.520;13.494;2023-02-08T08:46:19;22.17;;;12.40;;
9767;SDS011;4923;52.520;13.494;2023-02-08T08:49:06;23.58;;;13.15;;
9767;SDS011;4923;52.520;13.494;2023-02-08T08:51:53;26.02;;;13.70;;
9767;SDS011;4923;52.520;13.494;2023-02-08T08:54:41;27.42;;;12.77;;
9767;SDS011;4923;52.520;13.494;2023-02-08T08:57:29;22.83;;;13.38;;
9767;SDS011;4923;52.520;13.494;2023-02-08T09:00:16;24.08;;;14.13;;
9767;SDS011;4923;52.520;13.494;2023-02-08T09:03:03;27.42;;;13.88;;
9767;SDS011;4923;52.520;13.494;2023-02-08T09:05:50;26.67;;;14.40;;
9767;SDS011;4923;52.520;13.494;2023-02-08T09:08:37;26.08;;;13.95;;
9767;SDS011;4923;52.520;13.494;2023-02-08T09:11:24;28.30;;;13.50;;
9767;SDS011;4923;52.520;13.494;2023-02-08T09:14:12;22.08;;;13.27;;
9767;SDS011;4923;52.520;13.494;2023-02-08T09:17:00;25.83;;;13.77;;
9767;SDS011;4923;52.520;13.494;2023-02-08T09:19:47;26.38;;;13.48;;
9767;SDS011;4923;52.520;13.494;2023-02-08T09:22:33;26.80;;;13.90;;
9767;SDS011;4923;52.520;13.494;2023-02-08T09:25:20;25.73;;;13.45;;
9767;SDS011;4923;52.520;13.494;2023-02-08T09:28:08;23.95;;;14.35;;
9767;SDS011;4923;52.520;13.494;2023-02-08T09:30:56;24.52;;;14.25;;
9767;SDS011;4923;52.520;13.494;2023-02-08T09:33:45;29.00;;;15.05;;
9767;SDS011;4923;52.520;13.494;2023-02-08T09:36:33;27.38;;;14.57;;
9767;SDS011;4923;52.520;13.494;2023-02-08T09:39:23;23.40;;;13.55;;
9767;SDS011;4923;52.520;13.494;2023-02-08T09:42:14;27.15;;;14.65;;
9767;SDS011;4923;52.520;13.494;2023-02-08T09:45:21;32.47;;;14.68;;
9767;SDS011;4923;52.520;13.494;2023-02-08T09:48:20;26.75;;;14.75;;
9767;SDS011;4923;52.520;13.494;2023-02-08T09:51:11;29.20;;;16.02;;
9767;SDS011;4923;52.520;13.494;2023-02-08T09:54:11;26.15;;;14.85;;
9767;SDS011;4923;52.520;13.494;2023-02-08T09:57:04;32.80;;;15.63;;
9767;SDS011;4923;52.520;13.494;2023-02-08T09:59:56;24.95;;;14.63;;
9767;SDS011;4923;52.520;13.494;2023-02-08T10:02:45;35.50;;;13.80;;
9767;SDS011;4923;52.520;13.494;2023-02-08T10:05:35;26.67;;;13.75;;
9767;SDS011;4923;52.520;13.494;2023-02-08T10:08:22;33.33;;;14.98;;
9767;SDS011;4923;52.520;13.494;2023-02-08T10:11:16;25.63;;;13.82;;
9767;SDS011;4923;52.520;13.494;2023-02-08T10:14:15;30.90;;;14.55;;
9767;SDS011;4923;52.520;13.494;2023-02-08T10:17:33;31.45;;;14.68;;
9767;SDS011;4923;52.520;13.494;2023-02-08T10:20:39;27.63;;;14.63;;
9767;SDS011;4923;52.520;13.494;2023-02-08T10:26:58;23.83;;;12.10;;
9767;SDS011;4923;52.520;13.494;2023-02-08T10:30:04;25.85;;;14.35;;
9767;SDS011;4923;52.520;13.494;2023-02-08T10:33:05;24.48;;;13.57;;
9767;SDS011;4923;52.520;13.494;2023-02-08T10:35:58;25.05;;;13.40;;
9767;SDS011;4923;52.520;13.494;2023-02-08T10:38:45;24.45;;;13.10;;
9767;SDS011;4923;52.520;13.494;2023-02-08T10:41:35;22.95;;;13.43;;
9767;SDS011;4923;52.520;13.494;2023-02-08T10:44:24;29.75;;;15.90;;
9767;SDS011;4923;52.520;13.494;2023-02-08T10:47:19;27.05;;;12.88;;
9767;SDS011;4923;52.520;13.494;2023-02-08T10:50:15;22.23;;;13.55;;
9767;SDS011;4923;52.520;13.494;2023-02-08T10:53:09;20.13;;;12.25;;
9767;SDS011;4923;52.520;13.494;2023-02-08T10:55:59;27.88;;;13.98;;
9767;SDS011;4923;52.520;13.494;2023-02-08T10:58:46;25.13;;;13.30;;
9767;SDS011;4923;52.520;13.494;2023-02-08T11:01:33;22.55;;;12.73;;
9767;SDS011;4923;52.520;13.494;2023-02-08T11:04:20;25.23;;;13.23;;
9767;SDS011;4923;52.520;13.494;2023-02-08T11:07:17;29.35;;;14.02;;
9767;SDS011;4923;52.520;13.494;2023-02-08T11:10:14;25.52;;;14.35;;
9767;SDS011;4923;52.520;13.494;2023-02-08T11:13:14;23.85;;;13.57;;
9767;SDS011;4923;52.520;13.494;2023-02-08T11:16:03;23.15;;;13.25;;
9767;SDS011;4923;52.520;13.494;2023-02-08T11:18:52;27.88;;;14.38;;
9767;SDS011;4923;52.520;13.494;2023-02-08T11:21:42;26.27;;;14.00;;
9767;SDS011;4923;52.520;13.494;2023-02-08T11:24:36;20.50;;;12.55;;
9767;SDS011;4923;52.520;13.494;2023-02-08T11:27:31;24.35;;;13.20;;
9767;SDS011;4923;52.520;13.494;2023-02-08T11:30:21;26.23;;;12.90;;
9767;SDS011;4923;52.520;13.494;2023-02-08T11:33:13;23.75;;;12.52;;
9767;SDS011;4923;52.520;13.494;2023-02-08T11:36:04;28.98;;;13.27;;
9767;SDS011;4923;52.520;13.494;2023-02-08T11:38:54;23.80;;;12.63;;
9767;SDS011;4923;52.520;13.494;2023-02-08T11:41:42;24.80;;;13.05;;
9767;SDS011;4923;52.520;13.494;2023-02-08T11:44:33;32.42;;;13.00;;
9767;SDS011;4923;52.520;13.494;2023-02-08T11:47:23;20.88;;;12.52;;
9767;SDS011;4923;52.520;13.494;2023-02-08T11:50:20;24.80;;;14.05;;
9767;SDS011;4923;52.520;13.494;2023-02-08T11:53:16;19.73;;;12.82;;
9767;SDS011;4923;52.520;13.494;2023-02-08T11:56:16;27.95;;;13.05;;
9767;SDS011;4923;52.520;13.494;2023-02-08T11:59:15;27.17;;;13.68;;
9767;SDS011;4923;52.520;13.494;2023-02-08T12:02:21;20.65;;;12.60;;
9767;SDS011;4923;52.520;13.494;2023-02-08T12:05:16;22.92;;;13.27;;
9767;SDS011;4923;52.520;13.494;2023-02-08T12:08:10;23.77;;;12.07;;
9767;SDS011;4923;52.520;13.494;2023-02-08T12:11:07;23.88;;;12.75;;
9767;SDS011;4923;52.520;13.494;2023-02-08T12:14:02;20.23;;;12.95;;
9767;SDS011;4923;52.520;13.494;2023-02-08T12:16:59;27.30;;;14.98;;
9767;SDS011;4923;52.520;13.494;2023-02-08T12:20:12;22.05;;;12.70;;
9767;SDS011;4923;52.520;13.494;2023-02-08T12:26:48;22.35;;;12.27;;
9767;SDS011;4923;52.520;13.494;2023-02-08T12:29:42;25.70;;;12.60;;
9767;SDS011;4923;52.520;13.494;2023-02-08T12:32:38;28.05;;;12.93;;
9767;SDS011;4923;52.520;13.494;2023-02-08T12:35:52;22.05;;;12.80;;
9767;SDS011;4923;52.520;13.494;2023-02-08T12:38:56;26.80;;;12.40;;
9767;SDS011;4923;52.520;13.494;2023-02-08T12:42:24;21.45;;;11.57;;
9767;SDS011;4923;52.520;13.494;2023-02-08T12:45:33;20.00;;;11.70;;
9767;SDS011;4923;52.520;13.494;2023-02-08T12:48:35;21.00;;;11.68;;
9767;SDS011;4923;52.520;13.494;2023-02-08T12:51:35;21.00;;;10.43;;
9767;SDS011;4923;52.520;13.494;2023-02-08T12:54:29;19.63;;;10.40;;
9767;SDS011;4923;52.520;13.494;2023-02-08T12:57:20;21.20;;;12.35;;
9767;SDS011;4923;52.520;13.494;2023-02-08T13:00:15;27.90;;;13.90;;
9767;SDS011;4923;52.520;13.494;2023-02-08T13:03:04;19.05;;;12.23;;
9767;SDS011;4923;52.520;13.494;2023-02-08T13:05:59;27.85;;;12.95;;
9767;SDS011;4923;52.520;13.494;2023-02-08T13:08:53;22.02;;;13.43;;
9767;SDS011;4923;52.520;13.494;2023-02-08T13:11:45;22.98;;;12.18;;
9767;SDS011;4923;52.520;13.494;2023-02-08T13:14:37;22.50;;;11.77;;
9767;SDS011;4923;52.520;13.494;2023-02-08T13:17:29;21.77;;;12.73;;
9767;SDS011;4923;52.520;13.494;2023-02-08T13:20:29;23.50;;;11.98;;
9767;SDS011;4923;52.520;13.494;2023-02-08T13:23:24;29.02;;;12.65;;
9767;SDS011;4923;52.520;13.494;2023-02-08T13:26:16;23.00;;;12.40;;
9767;SDS011;4923;52.520;13.494;2023-02-08T13:29:13;18.25;;;10.65;;
9767;SDS011;4923;52.520;13.494;2023-02-08T13:32:02;19.95;;;12.13;;
9767;SDS011;4923;52.520;13.494;2023-02-08T13:34:53;20.27;;;12.05;;
9767;SDS011;4923;52.520;13.494;2023-02-08T13:37:48;25.23;;;11.35;;
9767;SDS011;4923;52.520;13.494;2023-02-08T13:40:36;25.00;;;12.10;;
9767;SDS011;4923;52.520;13.494;2023-02-08T13:43:27;22.98;;;11.88;;
9767;SDS011;4923;52.520;13.494;2023-02-08T13:46:20;30.17;;;12.60;;
9767;SDS011;4923;52.520;13.494;2023-02-08T13:49:11;23.52;;;12.93;;
9767;SDS011;4923;52.520;13.494;2023-02-08T13:52:49;17.05;;;10.68;;
9767;SDS011;4923;52.520;13.494;2023-02-08T13:55:50;22.58;;;12.07;;
9767;SDS011;4923;52.520;13.494;2023-02-08T14:02:17;20.65;;;11.02;;
9767;SDS011;4923;52.520;13.494;2023-02-08T14:08:29;23.25;;;11.70;;
9767;SDS011;4923;52.520;13.494;2023-02-08T14:11:26;23.23;;;11.57;;
9767;SDS011;4923;52.520;13.494;2023-02-08T14:14:24;20.63;;;11.02;;
9767;SDS011;4923;52.520;13.494;2023-02-08T14:17:16;21.90;;;12.55;;
9767;SDS011;4923;52.520;13.494;2023-02-08T14:20:05;19.65;;;11.02;;
9767;SDS011;4923;52.520;13.494;2023-02-08T14:22:55;19.50;;;11.65;;
9767;SDS011;4923;52.520;13.494;2023-02-08T14:25:45;16.77;;;10.52;;
9767;SDS011;4923;52.520;13.494;2023-02-08T14:28:34;19.27;;;11.75;;
9767;SDS011;4923;52.520;13.494;2023-02-08T14:31:34;22.15;;;10.90;;
9767;SDS011;4923;52.520;13.494;2023-02-08T14:34:25;22.15;;;12.25;;
9767;SDS011;4923;52.520;13.494;2023-02-08T14:37:26;21.67;;;11.90;;
9767;SDS011;4923;52.520;13.494;2023-02-08T14:40:31;20.55;;;11.13;;
9767;SDS011;4923;52.520;13.494;2023-02-08T14:43:34;21.55;;;9.30;;
9767;SDS011;4923;52.520;13.494;2023-02-08T14:46:42;19.77;;;11.23;;
9767;SDS011;4923;52.520;13.494;2023-02-08T14:49:33;21.08;;;11.20;;
9767;SDS011;4923;52.520;13.494;2023-02-08T14:52:23;20.85;;;10.55;;
9767;SDS011;4923;52.520;13.494;2023-02-08T14:55:12;24.55;;;11.52;;
9767;SDS011;4923;52.520;13.494;2023-02-08T14:58:04;18.20;;;10.27;;
9767;SDS011;4923;52.520;13.494;2023-02-08T15:00:53;19.00;;;11.48;;
9767;SDS011;4923;52.520;13.494;2023-02-08T15:03:45;16.48;;;10.10;;
9767;SDS011;4923;52.520;13.494;2023-02-08T15:06:44;19.95;;;12.63;;
9767;SDS011;4923;52.520;13.494;2023-02-08T15:09:44;19.50;;;10.23;;
9767;SDS011;4923;52.520;13.494;2023-02-08T15:12:31;34.95;;;12.07;;
9767;SDS011;4923;52.520;13.494;2023-02-08T15:15:23;23.58;;;12.20;;
9767;SDS011;4923;52.520;13.494;2023-02-08T15:18:14;20.52;;;9.52;;
9767;SDS011;4923;52.520;13.494;2023-02-08T15:21:04;20.50;;;12.02;;
9767;SDS011;4923;52.520;13.494;2023-02-08T15:23:57;21.00;;;11.40;;
9767;SDS011;4923;52.520;13.494;2023-02-08T15:26:45;17.15;;;11.10;;
9767;SDS011;4923;52.520;13.494;2023-02-08T15:29:38;21.75;;;11.15;;
9767;SDS011;4923;52.520;13.494;2023-02-08T15:32:27;21.10;;;12.10;;
9767;SDS011;4923;52.520;13.494;2023-02-08T15:35:16;30.80;;;12.60;;
9767;SDS011;4923;52.520;13.494;2023-02-08T15:38:08;17.45;;;10.55;;
9767;SDS011;4923;52.520;13.494;2023-02-08T15:41:01;21.02;;;10.98;;
9767;SDS011;4923;52.520;13.494;2023-02-08T15:44:00;19.17;;;10.15;;
9767;SDS011;4923;52.520;13.494;2023-02-08T15:46:48;23.63;;;11.45;;
9767;SDS011;4923;52.520;13.494;2023-02-08T15:49:40;16.77;;;11.32;;
9767;SDS011;4923;52.520;13.494;2023-02-08T15:52:30;18.00;;;11.20;;
9767;SDS011;4923;52.520;13.494;2023-02-08T15:55:20;19.60;;;10.90;;
9767;SDS011;4923;52.520;13.494;2023-02-08T15:58:07;22.42;;;12.32;;
9767;SDS011;4923;52.520;13.494;2023-02-08T16:01:04;18.75;;;10.93;;
9767;SDS011;4923;52.520;13.494;2023-02-08T16:03:53;19.13;;;11.48;;
9767;SDS011;4923;52.520;13.494;2023-02-08T16:06:45;19.38;;;10.80;;
9767;SDS011;4923;52.520;13.494;2023-02-08T16:09:35;21.85;;;12.75;;
9767;SDS011;4923;52.520;13.494;2023-02-08T16:12:23;17.73;;;10.75;;
9767;SDS011;4923;52.520;13.494;2023-02-08T16:18:30;18.20;;;11.15;;
9767;SDS011;4923;52.520;13.494;2023-02-08T16:21:21;18.60;;;11.45;;
9767;SDS011;4923;52.520;13.494;2023-02-08T16:24:21;17.70;;;9.90;;
9767;SDS011;4923;52.520;13.494;2023-02-08T16:27:14;20.98;;;10.45;;
9767;SDS011;4923;52.520;13.494;2023-02-08T16:30:05;17.98;;;11.13;;
9767;SDS011;4923;52.520;13.494;2023-02-08T16:33:06;17.98;;;9.90;;
9767;SDS011;4923;52.520;13.494;2023-02-08T16:35:54;16.90;;;9.60;;
9767;SDS011;4923;52.520;13.494;2023-02-08T16:38:46;16.13;;;9.95;;
9767;SDS011;4923;52.520;13.494;2023-02-08T16:42:18;23.08;;;12.18;;
9767;SDS011;4923;52.520;13.494;2023-02-08T16:45:18;18.75;;;9.85;;
9767;SDS011;4923;52.520;13.494;2023-02-08T16:48:20;20.30;;;10.80;;
9767;SDS011;4923;52.520;13.494;2023-02-08T16:51:13;19.55;;;10.70;;
9767;SDS011;4923;52.520;13.494;2023-02-08T16:54:03;23.48;;;11.55;;
9767;SDS011;4923;52.520;13.494;2023-02-08T16:56:55;22.17;;;10.75;;
9767;SDS011;4923;52.520;13.494;2023-02-08T16:59:44;19.08;;;11.20;;
9767;SDS011;4923;52.520;13.494;2023-02-08T17:02:31;19.67;;;11.90;;
9767;SDS011;4923;52.520;13.494;2023-02-08T17:05:18;20.58;;;11.27;;
9767;SDS011;4923;52.520;13.494;2023-02-08T17:08:07;20.45;;;10.63;;
9767;SDS011;4923;52.520;13.494;2023-02-08T17:10:57;21.27;;;9.85;;
9767;SDS011;4923;52.520;13.494;2023-02-08T17:13:45;17.58;;;10.90;;
9767;SDS011;4923;52.520;13.494;2023-02-08T17:16:32;19.92;;;11.50;;
9767;SDS011;4923;52.520;13.494;2023-02-08T17:19:20;21.10;;;11.82;;
9767;SDS011;4923;52.520;13.494;2023-02-08T17:22:07;21.88;;;12.02;;